createdAt,value
2023-05-01T00:04:00.810Z,100380.47
2023-05-01T00:09:03.055Z,100378.75
2023-05-01T00:14:04.725Z,100382.22
2023-05-01T00:19:06.437Z,100377.09
2023-05-01T00:24:08.141Z,100371.03
2023-05-01T00:29:09.927Z,100371.00
2023-05-01T00:34:11.985Z,100364.03
2023-05-01T00:39:13.554Z,100367.53
2023-05-01T00:44:15.553Z,100370.13
2023-05-01T00:49:18.149Z,100367.50
2023-05-01T00:54:21.049Z,100358.00
2023-05-01T00:59:22.845Z,100359.75
2023-05-01T01:04:24.755Z,100344.13
2023-05-01T01:09:48.527Z,100344.97
2023-05-01T01:15:15.837Z,100342.41
2023-05-01T01:20:36.352Z,100337.19
2023-05-01T01:26:02.815Z,100341.56
2023-05-01T01:31:07.257Z,100331.13
2023-05-01T01:36:33.396Z,100322.47
2023-05-01T01:41:37.216Z,100322.47
2023-05-01T01:46:42.692Z,100317.28
2023-05-01T01:51:46.694Z,100315.53
2023-05-01T01:56:49.606Z,100307.69
2023-05-01T02:01:53.669Z,100293.84
2023-05-01T02:06:59.912Z,100297.34
2023-05-01T02:12:05.488Z,100299.91
2023-05-01T02:17:09.409Z,100286.00
2023-05-01T02:22:12.205Z,100286.88
2023-05-01T02:27:20.338Z,100288.66
2023-05-01T02:32:24.010Z,100284.31
2023-05-01T02:37:28.082Z,100279.94
2023-05-01T02:42:30.139Z,100275.63
2023-05-01T02:47:35.659Z,100277.34
2023-05-01T02:52:38.053Z,100271.28
2023-05-01T02:57:59.806Z,100271.22
2023-05-01T03:03:01.540Z,100256.56
2023-05-01T03:08:04.192Z,100256.56
2023-05-01T03:13:05.821Z,100252.16
2023-05-01T03:18:07.898Z,100251.34
2023-05-01T03:23:09.998Z,100247.88
2023-05-01T03:28:11.650Z,100247.81
2023-05-01T03:33:13.740Z,100244.31
2023-05-01T03:38:15.922Z,100245.22
2023-05-01T03:43:44.503Z,100236.56
2023-05-01T03:49:04.903Z,100234.88
2023-05-01T03:54:10.596Z,100240.88
2023-05-01T03:59:29.618Z,100226.19
2023-05-01T04:04:31.564Z,100229.59
2023-05-01T04:09:33.783Z,100222.66
2023-05-01T04:14:35.712Z,100226.16
2023-05-01T04:19:37.912Z,100221.88
2023-05-01T04:24:39.600Z,100214.09
2023-05-01T04:29:41.866Z,100209.81
2023-05-01T04:34:46.988Z,100212.41
2023-05-01T04:39:48.856Z,100206.34
2023-05-01T04:44:52.363Z,100204.56
2023-05-01T04:49:55.692Z,100207.06
2023-05-01T04:54:58.010Z,100201.03
2023-05-01T05:00:03.529Z,100196.69
2023-05-01T05:05:08.230Z,100191.38
2023-05-01T05:10:10.287Z,100193.84
2023-05-01T05:15:13.205Z,100194.44
2023-05-01T05:20:15.767Z,100194.44
2023-05-01T05:25:17.719Z,100194.28
2023-05-01T05:30:19.563Z,100190.19
2023-05-01T05:35:22.214Z,100184.56
2023-05-01T05:40:23.999Z,100185.19
2023-05-01T05:45:34.411Z,100186.44
2023-05-01T05:50:36.836Z,100181.72
2023-05-01T05:55:40.462Z,100179.25
2023-05-01T06:00:43.039Z,100176.25
2023-05-01T06:05:45.431Z,100177.53
2023-05-01T06:10:47.717Z,100163.75
2023-05-01T06:15:50.051Z,100164.44
2023-05-01T06:20:52.528Z,100161.56
2023-05-01T06:25:54.666Z,100162.69
2023-05-01T06:30:56.410Z,100154.03
2023-05-01T06:36:00.704Z,100157.41
2023-05-01T06:41:02.440Z,100149.19
2023-05-01T06:46:05.187Z,100150.63
2023-05-01T06:51:06.853Z,100147.41
2023-05-01T06:56:09.007Z,100137.66
2023-05-01T07:01:11.088Z,100131.88
2023-05-01T07:06:12.793Z,100125.41
2023-05-01T07:11:14.527Z,100120.38
2023-05-01T07:16:16.211Z,100118.63
2023-05-01T07:21:17.994Z,100115.25
2023-05-01T07:26:19.858Z,100102.59
2023-05-01T07:31:22.596Z,100106.25
2023-05-01T07:36:24.399Z,100095.75
2023-05-01T07:41:26.685Z,100092.22
2023-05-01T07:46:28.486Z,100085.09
2023-05-01T07:51:30.862Z,100081.63
2023-05-01T07:56:32.653Z,100089.88
2023-05-01T08:01:34.923Z,100082.25
2023-05-01T08:06:36.636Z,100086.91
2023-05-01T08:11:38.309Z,100075.72
2023-05-01T08:16:40.028Z,100067.06
2023-05-01T08:21:41.734Z,100072.59
2023-05-01T08:26:43.727Z,100063.38
2023-05-01T08:31:45.613Z,100059.50
2023-05-01T08:36:47.360Z,100073.63
2023-05-01T08:41:50.002Z,100069.50
2023-05-01T08:47:12.808Z,100057.34
2023-05-01T08:52:15.471Z,100070.41
2023-05-01T08:57:17.350Z,100060.41
2023-05-01T09:02:21.738Z,100058.13
2023-05-01T09:07:23.814Z,100053.16
2023-05-01T09:12:26.904Z,100045.41
2023-05-01T09:17:31.721Z,100045.13
2023-05-01T09:22:34.760Z,100036.81
2023-05-01T09:27:38.037Z,100023.31
2023-05-01T09:32:41.465Z,100026.31
2023-05-01T09:37:49.930Z,100024.53
2023-05-01T09:42:53.228Z,100014.75
2023-05-01T09:48:10.915Z,100004.41
2023-05-01T09:53:13.720Z,100002.47
2023-05-01T09:58:27.628Z,100011.75
2023-05-01T10:03:36.948Z,99998.72
2023-05-01T10:08:47.484Z,99993.63
2023-05-01T10:14:09.684Z,99979.81
2023-05-01T10:19:13.268Z,99979.19
2023-05-01T10:24:17.220Z,99974.22
2023-05-01T10:29:23.334Z,99969.16
2023-05-01T10:34:28.411Z,99955.22
2023-05-01T10:39:34.822Z,99954.66
2023-05-01T10:44:37.379Z,99956.25
2023-05-01T10:50:09.289Z,99937.44
2023-05-01T10:55:36.442Z,99932.09
2023-05-01T11:00:38.234Z,99923.59
2023-05-01T11:06:05.023Z,99915.22
2023-05-01T11:11:26.983Z,99892.00
2023-05-01T11:16:38.520Z,99894.47
2023-05-01T11:21:41.932Z,99884.00
2023-05-01T11:26:44.523Z,99874.41
2023-05-01T11:31:48.584Z,99879.78
2023-05-01T11:36:51.870Z,99869.41
2023-05-01T11:42:09.604Z,99853.94
2023-05-01T11:47:11.605Z,99841.13
2023-05-01T11:52:13.265Z,99838.22
2023-05-01T11:57:14.988Z,99815.97
2023-05-01T12:02:20.582Z,99810.72
2023-05-01T12:07:23.644Z,99800.25
2023-05-01T12:12:25.403Z,99790.41
2023-05-01T12:17:28.383Z,99788.53
2023-05-01T12:22:30.382Z,99780.03
2023-05-01T12:27:32.952Z,99768.63
2023-05-01T12:32:34.794Z,99762.44
2023-05-01T12:37:36.969Z,99763.78
2023-05-01T12:42:38.779Z,99751.97
2023-05-01T12:47:40.573Z,99755.41
2023-05-01T12:52:42.678Z,99744.56
2023-05-01T12:57:54.578Z,99732.94
2023-05-01T13:03:04.202Z,99719.56
2023-05-01T13:08:06.134Z,99717.09
2023-05-01T13:13:07.853Z,99714.53
2023-05-01T13:18:09.640Z,99712.06
2023-05-01T13:23:13.064Z,99711.78
2023-05-01T13:28:19.206Z,99713.72
2023-05-01T13:33:20.727Z,99711.78
2023-05-01T13:38:24.623Z,99699.44
2023-05-01T13:43:26.260Z,99693.13
2023-05-01T13:48:27.909Z,99692.56
2023-05-01T13:53:30.512Z,99679.69
2023-05-01T13:58:33.745Z,99686.78
2023-05-01T14:03:40.821Z,99677.41
2023-05-01T14:08:43.320Z,99679.84
2023-05-01T14:13:46.963Z,99665.47
2023-05-01T14:18:48.766Z,99664.09
2023-05-01T14:23:53.130Z,99662.19
2023-05-01T14:28:55.565Z,99640.22
2023-05-01T14:34:06.286Z,99637.31
2023-05-01T14:39:08.495Z,99635.66
2023-05-01T14:44:17.896Z,99634.75
2023-05-01T14:49:21.699Z,99627.06
2023-05-01T14:54:23.357Z,99633.28
2023-05-01T14:59:25.003Z,99634.09
2023-05-01T15:04:26.710Z,99631.06
2023-05-01T15:09:28.325Z,99636.53
2023-05-01T15:14:29.954Z,99633.88
2023-05-01T15:19:32.533Z,99627.63
2023-05-01T15:24:34.195Z,99631.41
2023-05-01T15:29:35.893Z,99631.50
2023-05-01T15:34:37.974Z,99622.72
2023-05-01T15:39:40.359Z,99620.66
2023-05-01T15:44:42.163Z,99615.28
2023-05-01T15:49:43.842Z,99604.31
2023-05-01T15:54:48.563Z,99606.09
2023-05-01T15:59:53.913Z,99603.00
2023-05-01T16:04:55.615Z,99597.88
2023-05-01T16:09:58.204Z,99600.53
2023-05-01T16:15:04.546Z,99602.75
2023-05-01T16:20:10.964Z,99599.66
2023-05-01T16:25:12.821Z,99602.38
2023-05-01T16:30:14.807Z,99589.72
2023-05-01T16:35:18.344Z,99597.31
2023-05-01T16:40:21.577Z,99593.56
2023-05-01T16:45:23.301Z,99591.91
2023-05-01T16:50:25.051Z,99591.19
2023-05-01T16:55:26.810Z,99593.31
2023-05-01T17:00:29.387Z,99593.41
2023-05-01T17:05:31.010Z,99580.47
2023-05-01T17:10:32.648Z,99593.75
2023-05-01T17:15:34.285Z,99595.06
2023-05-01T17:20:36.233Z,99592.31
2023-05-01T17:25:37.926Z,99587.41
2023-05-01T17:30:39.587Z,99601.00
2023-05-01T17:35:41.417Z,99592.06
2023-05-01T17:40:43.241Z,99587.66
2023-05-01T17:45:45.514Z,99591.34
2023-05-01T17:50:47.401Z,99589.19
2023-05-01T17:55:49.098Z,99581.28
2023-05-01T18:00:51.058Z,99586.75
2023-05-01T18:05:52.744Z,99596.22
2023-05-01T18:10:54.351Z,99588.38
2023-05-01T18:15:56.412Z,99587.03
2023-05-01T18:20:58.345Z,99590.19
2023-05-01T18:26:00.076Z,99595.03
2023-05-01T18:31:01.918Z,99598.81
2023-05-01T18:36:04.460Z,99602.69
2023-05-01T18:41:06.207Z,99602.25
2023-05-01T18:46:07.823Z,99609.81
2023-05-01T18:51:09.743Z,99608.78
2023-05-01T18:56:11.407Z,99613.69
2023-05-01T19:01:13.071Z,99613.13
2023-05-01T19:06:14.730Z,99612.94
2023-05-01T19:11:16.533Z,99618.03
2023-05-01T19:16:18.193Z,99619.34
2023-05-01T19:21:20.128Z,99622.22
2023-05-01T19:26:23.195Z,99622.41
2023-05-01T19:31:25.309Z,99626.28
2023-05-01T19:36:27.020Z,99623.41
2023-05-01T19:41:28.846Z,99625.88
2023-05-01T19:46:30.653Z,99626.72
2023-05-01T19:51:32.713Z,99622.66
2023-05-01T19:56:34.622Z,99623.97
2023-05-01T20:01:36.879Z,99623.16
2023-05-01T20:06:38.629Z,99617.59
2023-05-01T20:11:40.286Z,99624.97
2023-05-01T20:16:41.921Z,99625.97
2023-05-01T20:21:43.720Z,99633.84
2023-05-01T20:26:45.334Z,99635.59
2023-05-01T20:31:48.646Z,99650.44
2023-05-01T20:36:50.396Z,99661.19
2023-05-01T20:41:52.021Z,99685.03
2023-05-01T20:46:53.899Z,99690.22
2023-05-01T20:51:56.817Z,99696.53
2023-05-01T20:56:58.684Z,99699.56
2023-05-01T21:02:04.517Z,99701.59
2023-05-01T21:07:06.133Z,99714.50
2023-05-01T21:12:07.731Z,99726.75
2023-05-01T21:17:09.637Z,99731.19
2023-05-01T21:22:20.877Z,99733.59
2023-05-01T21:27:24.225Z,99739.19
2023-05-01T21:32:34.652Z,99735.84
2023-05-01T21:37:37.296Z,99739.03
2023-05-01T21:42:40.001Z,99732.56
2023-05-01T21:47:44.421Z,99737.25
2023-05-01T21:52:48.007Z,99733.25
2023-05-01T21:57:50.261Z,99731.94
2023-05-01T22:02:52.097Z,99735.03
2023-05-01T22:07:54.231Z,99739.00
2023-05-01T22:12:55.981Z,99746.66
2023-05-01T22:17:57.652Z,99749.75
2023-05-01T22:22:59.247Z,99747.19
2023-05-01T22:28:04.187Z,99744.28
2023-05-01T22:33:05.893Z,99747.91
2023-05-01T22:38:08.258Z,99748.47
2023-05-01T22:43:10.408Z,99747.22
2023-05-01T22:48:12.421Z,99746.91
2023-05-01T22:53:14.206Z,99744.06
2023-05-01T22:58:15.831Z,99746.81
2023-05-01T23:03:17.542Z,99764.72
2023-05-01T23:08:19.226Z,99767.94
2023-05-01T23:13:23.533Z,99769.66
2023-05-01T23:18:31.647Z,99776.19
2023-05-01T23:23:35.247Z,99773.97
2023-05-01T23:28:44.096Z,99784.47
2023-05-01T23:33:45.741Z,99778.59
2023-05-01T23:38:47.747Z,99775.03
2023-05-01T23:43:49.390Z,99768.91
2023-05-01T23:48:51.122Z,99769.31
2023-05-01T23:53:52.679Z,99768.06
2023-05-01T23:58:54.393Z,99767.97
